Time;durP1;ratioP1;P1;durP2;ratioP2;P2;SDS_P1;SDS_P2;PMS_P1;PMS_P2;Temp;Humidity;BMP_temperature;BMP_pressure;BME280_temperature;BME280_humidity;BME280_pressure;Samples;Min_cycle;Max_cycle;Signal;HPM_P1;HPM_P2
2021/11/02 00:00:51;;;;;;;12.80;6.57;;;;;;;12.15;63.15;99520.69;4972096;28;120725;-70
2021/11/02 00:03:17;;;;;;;11.80;6.75;;;;;;;12.15;63.37;99515.19;4971134;28;119664;-70
2021/11/02 00:05:43;;;;;;;11.88;6.82;;;;;;;12.17;63.03;99520.94;4953008;28;120698;-70
2021/11/02 00:08:09;;;;;;;17.00;6.68;;;;;;;12.17;63.25;99523.69;4973834;28;119775;-70
2021/11/02 00:10:35;;;;;;;12.07;6.85;;;;;;;12.16;63.20;99516.69;4978827;28;119714;-70
2021/11/02 00:13:00;;;;;;;15.13;7.97;;;;;;;12.19;63.41;99507.47;4975183;28;123512;-70
2021/11/02 00:15:31;;;;;;;12.10;7.00;;;;;;;12.20;63.07;99516.47;4977393;28;119315;-70
2021/11/02 00:18:03;;;;;;;15.15;7.28;;;;;;;12.20;63.44;99508.97;4958394;28;120317;-70
2021/11/02 00:20:30;;;;;;;16.33;7.07;;;;;;;12.23;63.58;99507.97;4980058;28;120093;-70
2021/11/02 00:22:57;;;;;;;19.15;7.35;;;;;;;12.25;63.25;99508.25;4976507;28;119481;-70
2021/11/02 00:25:26;;;;;;;10.55;6.60;;;;;;;12.25;62.87;99497.25;4977389;28;120060;-70
2021/11/02 00:27:53;;;;;;;13.02;6.20;;;;;;;12.26;63.43;99492.50;4972868;28;119286;-70
2021/11/02 00:30:20;;;;;;;12.27;6.78;;;;;;;12.28;63.28;99501.00;4965552;28;120339;-70
2021/11/02 00:32:50;;;;;;;12.65;6.68;;;;;;;12.29;63.12;99500.50;4975350;28;119747;-70
2021/11/02 00:35:20;;;;;;;13.60;6.47;;;;;;;12.28;63.33;99493.50;4976542;28;119795;-70
2021/11/02 00:37:47;;;;;;;15.65;6.78;;;;;;;12.33;63.48;99507.81;4962764;28;119306;-70
2021/11/02 00:40:16;;;;;;;11.25;6.63;;;;;;;12.34;63.53;99501.06;4975732;28;119353;-70
2021/11/02 00:45:31;;;;;;;14.18;6.57;;;;;;;12.36;63.39;99502.06;4975528;28;119342;-70
2021/11/02 00:48:02;;;;;;;10.93;6.57;;;;;;;12.39;63.24;99505.84;4947404;28;119842;-70
2021/11/02 00:50:29;;;;;;;12.50;6.32;;;;;;;12.37;63.10;99506.34;4956830;28;119439;-70
2021/11/02 00:52:55;;;;;;;13.52;6.13;;;;;;;12.38;63.34;99505.09;4964236;28;119771;-70
2021/11/02 00:55:22;;;;;;;11.85;6.47;;;;;;;12.33;63.47;99492.06;4952380;28;119438;-70
2021/11/02 00:57:47;;;;;;;12.25;6.65;;;;;;;12.35;63.27;99495.06;4973199;28;119824;-70
2021/11/02 01:00:14;;;;;;;12.52;6.57;;;;;;;12.38;63.16;99496.84;4955428;28;119658;-70
2021/11/02 01:02:41;;;;;;;13.80;6.30;;;;;;;12.36;63.31;99504.81;4962658;28;119932;-70
2021/11/02 01:05:10;;;;;;;13.38;6.88;;;;;;;12.37;63.34;99503.59;4960412;28;120337;-70
2021/11/02 01:07:39;;;;;;;11.50;6.15;;;;;;;12.35;62.82;99502.56;4959011;28;121950;-70
2021/11/02 01:10:11;;;;;;;11.82;6.45;;;;;;;12.37;63.03;99511.06;4975372;28;119794;-70
2021/11/02 01:12:37;;;;;;;12.25;6.70;;;;;;;12.36;63.15;99504.06;4945422;28;120123;-70
2021/11/02 01:15:04;;;;;;;11.77;6.90;;;;;;;12.34;62.86;99517.56;4963587;28;122284;-70
2021/11/02 01:17:30;;;;;;;14.13;7.53;;;;;;;12.32;62.74;99520.81;4976237;28;119537;-71
2021/11/02 01:19:59;;;;;;;14.75;7.15;;;;;;;12.28;62.69;99523.75;4982464;28;120039;-70
2021/11/02 01:22:27;;;;;;;15.68;6.57;;;;;;;12.28;62.84;99523.75;4974570;28;119686;-70
2021/11/02 01:24:53;;;;;;;12.50;6.25;;;;;;;12.22;62.86;99514.72;4975146;28;119923;-70
2021/11/02 01:27:22;;;;;;;10.85;7.03;;;;;;;12.25;62.86;99518.50;4958752;28;120307;-70
2021/11/02 01:29:48;;;;;;;15.68;6.97;;;;;;;12.21;62.89;99518.72;4978165;28;119458;-70
2021/11/02 01:32:14;;;;;;;20.13;6.88;;;;;;;12.21;62.97;99515.22;4958282;28;120825;-70
2021/11/02 01:34:45;;;;;;;15.98;6.97;;;;;;;12.18;62.74;99521.69;4963457;28;119887;-70
2021/11/02 01:37:11;;;;;;;12.27;6.72;;;;;;;12.14;63.03;99519.16;4957450;28;119778;-70
2021/11/02 01:39:37;;;;;;;13.63;6.88;;;;;;;12.13;63.00;99517.66;4974791;28;119436;-70
2021/11/02 01:42:03;;;;;;;15.27;7.45;;;;;;;12.13;63.01;99523.16;4963465;28;120728;-70
2021/11/02 01:44:30;;;;;;;11.98;7.28;;;;;;;12.12;62.82;99527.16;4976748;28;119806;-70
2021/11/02 01:47:00;;;;;;;11.05;6.93;;;;;;;12.07;62.91;99522.38;4962539;28;121400;-70
2021/11/02 01:49:35;;;;;;;13.50;7.47;;;;;;;12.09;62.58;99527.38;4968136;28;120195;-70
2021/11/02 01:52:03;;;;;;;17.95;7.20;;;;;;;12.05;62.76;99519.34;4964055;28;119993;-70
2021/11/02 01:54:29;;;;;;;13.27;7.45;;;;;;;12.02;62.66;99523.06;4974546;28;120260;-70
2021/11/02 01:56:55;;;;;;;15.13;7.05;;;;;;;12.04;62.88;99525.31;4973861;28;119912;-70
2021/11/02 01:59:25;;;;;;;12.20;7.38;;;;;;;11.99;62.83;99518.53;4963503;28;119459;-70
2021/11/02 02:02:43;;;;;;;14.77;7.43;;;;;;;11.98;63.02;99515.03;4978070;28;120041;-70
2021/11/02 02:05:34;;;;;;;14.00;7.25;;;;;;;11.97;63.05;99505.28;4963043;28;119867;-70
2021/11/02 02:08:30;;;;;;;13.55;7.55;;;;;;;11.96;63.11;99514.03;4972128;28;119651;-70
2021/11/02 02:11:16;;;;;;;15.38;7.78;;;;;;;11.95;63.27;99510.53;4974381;28;119681;-70
2021/11/02 02:13:58;;;;;;;13.63;7.73;;;;;;;11.94;62.90;99502.78;4973596;28;119792;-70
2021/11/02 02:16:28;;;;;;;15.70;8.35;;;;;;;11.91;62.81;99501.00;4967299;28;126378;-70
2021/11/02 02:19:22;;;;;;;23.83;9.25;;;;;;;11.90;62.93;99497.50;4979858;28;119382;-70
2021/11/02 02:22:12;;;;;;;13.90;8.25;;;;;;;11.90;63.11;99502.25;4982037;28;119466;-70
2021/11/02 02:25:05;;;;;;;15.07;8.90;;;;;;;11.86;63.11;99498.97;4978818;28;121360;-69
2021/11/02 02:28:08;;;;;;;13.18;7.32;;;;;;;11.84;62.71;99496.72;4956206;28;119522;-70
2021/11/02 02:30:41;;;;;;;13.35;7.38;;;;;;;11.77;62.80;99490.84;4978008;28;119843;-70
2021/11/02 02:33:08;;;;;;;13.55;7.13;;;;;;;11.76;63.16;99500.34;4977718;28;120659;-70
2021/11/02 02:35:35;;;;;;;12.95;8.07;;;;;;;11.74;62.68;99494.59;4959920;28;120397;-70
2021/11/02 02:38:05;;;;;;;16.10;8.93;;;;;;;11.56;62.65;99473.69;4978008;28;119859;-70
2021/11/02 02:40:31;;;;;;;14.45;7.53;;;;;;;11.69;62.76;99491.31;4964666;28;119916;-70
2021/11/02 02:42:58;;;;;;;18.65;8.35;;;;;;;11.67;62.68;99488.28;4977976;28;119677;-70
2021/11/02 02:45:26;;;;;;;16.45;7.55;;;;;;;11.60;62.56;99494.22;4978877;28;122105;-70
2021/11/02 02:47:54;;;;;;;12.85;7.55;;;;;;;11.61;62.57;99500.47;4945641;28;119910;-70
2021/11/02 02:50:21;;;;;;;15.77;7.75;;;;;;;11.58;62.47;99499.44;4977713;28;119577;-70
2021/11/02 02:52:52;;;;;;;12.05;7.13;;;;;;;11.56;62.16;99501.16;4982150;28;120703;-70
2021/11/02 02:55:22;;;;;;;15.48;8.55;;;;;;;11.53;62.43;99496.63;4978900;28;119333;-70
2021/11/02 02:57:54;;;;;;;14.48;7.60;;;;;;;11.49;62.17;99494.13;4950525;28;122142;-70
2021/11/02 03:00:21;;;;;;;13.38;7.63;;;;;;;11.46;62.44;99495.09;4975786;28;119920;-70
2021/11/02 03:02:50;;;;;;;20.52;9.70;;;;;;;11.47;62.32;99499.34;4957952;28;119732;-71
2021/11/02 03:05:18;;;;;;;18.08;9.07;;;;;;;11.45;62.50;99507.31;4974840;28;119791;-70
2021/11/02 03:07:47;;;;;;;15.77;8.55;;;;;;;11.43;62.18;99500.78;4979396;28;119454;-70
2021/11/02 03:10:13;;;;;;;13.27;7.50;;;;;;;11.43;62.64;99503.53;4960133;28;121124;-70
2021/11/02 03:12:46;;;;;;;13.05;8.43;;;;;;;11.40;62.62;99508.00;4973450;28;119785;-71
2021/11/02 03:18:10;;;;;;;14.70;7.25;;;;;;;11.33;62.21;99514.66;4972198;28;120002;-70
2021/11/02 03:51:16;;;;;;;12.82;8.70;;;;;;;10.88;62.40;99518.88;4976527;28;119518;-70
2021/11/02 03:56:56;;;;;;;16.27;8.18;;;;;;;10.83;62.55;99514.09;4978118;28;121702;-70
2021/11/02 04:46:34;;;;;;;20.48;10.45;;;;;;;10.72;63.22;99539.41;4980478;28;120412;-70
2021/11/02 05:58:30;;;;;;;18.33;9.43;;;;;;;10.49;63.06;99548.53;4971484;28;119342;-70
2021/11/02 06:08:50;;;;;;;12.32;8.27;;;;;;;10.49;63.48;99559.50;4959994;28;119485;-70
2021/11/02 06:28:49;;;;;;;19.38;9.88;;;;;;;10.45;63.93;99537.78;4978270;28;119649;-69
2021/11/02 06:31:21;;;;;;;14.00;9.13;;;;;;;10.46;63.97;99544.03;4975726;28;119708;-70
2021/11/02 07:15:46;;;;;;;19.05;9.60;;;;;;;10.54;64.32;99577.28;4969804;28;119473;-70
2021/11/02 07:18:32;;;;;;;20.73;9.57;;;;;;;10.60;64.14;99594.56;4974321;28;120333;-69
2021/11/02 07:21:15;;;;;;;16.08;10.02;;;;;;;10.61;64.55;99591.34;4965930;28;120795;-70
2021/11/02 07:23:52;;;;;;;13.90;9.23;;;;;;;10.65;64.21;99605.63;4962811;28;119685;-70
2021/11/02 08:47:40;;;;;;;17.77;9.55;;;;;;;11.63;64.94;99616.09;4960312;28;119530;-70
2021/11/02 08:50:10;;;;;;;;;;;;;;;11.64;64.89;99606.63;4964163;28;120790;-71
2021/11/02 08:52:38;;;;;;;17.20;9.75;;;;;;;11.72;65.06;99606.94;4962461;28;119983;-71
2021/11/02 08:55:06;;;;;;;16.35;10.95;;;;;;;11.78;65.17;99613.25;4970992;28;120297;-70
2021/11/02 08:57:33;;;;;;;17.10;9.45;;;;;;;11.81;65.09;99613.06;4973804;28;119806;-70
2021/11/02 08:59:59;;;;;;;13.35;9.88;;;;;;;11.83;64.63;99615.31;4975311;28;119652;-70
2021/11/02 09:02:33;;;;;;;18.30;9.20;;;;;;;11.82;64.96;99600.81;4976372;28;119638;-70
2021/11/02 09:05:06;;;;;;;13.13;9.02;;;;;;;11.86;65.01;99587.66;4959360;28;119524;-70
2021/11/02 09:07:32;;;;;;;14.85;9.02;;;;;;;11.91;64.62;99597.19;4973779;28;119529;-71
2021/11/02 09:09:59;;;;;;;18.02;9.55;;;;;;;11.95;65.19;99595.72;4972729;28;120083;-70
2021/11/02 09:12:31;;;;;;;14.05;9.05;;;;;;;12.02;64.89;99589.03;4973745;28;119900;-71
2021/11/02 09:15:02;;;;;;;19.35;9.35;;;;;;;12.08;65.32;99583.59;4948259;28;120135;-70
2021/11/02 09:17:34;;;;;;;13.68;9.48;;;;;;;12.16;65.36;99582.66;4967930;28;120119;-70
2021/11/02 09:20:02;;;;;;;16.20;9.52;;;;;;;12.23;65.36;99587.69;4957070;28;120595;-71
2021/11/02 09:22:30;;;;;;;18.52;9.70;;;;;;;12.29;65.24;99590.50;4963480;28;119861;-72
2021/11/02 09:24:57;;;;;;;16.25;9.68;;;;;;;12.24;64.82;99571.97;4976803;28;120055;-71
2021/11/02 09:27:24;;;;;;;14.43;9.02;;;;;;;12.31;64.67;99573.53;4977179;28;119010;-71
2021/11/02 09:29:50;;;;;;;17.77;9.10;;;;;;;12.44;64.68;99591.13;4968475;28;120205;-71
2021/11/02 09:32:17;;;;;;;16.38;10.50;;;;;;;12.50;64.86;99586.41;4978104;28;120360;-71
2021/11/02 09:34:43;;;;;;;17.85;10.15;;;;;;;12.55;64.53;99584.97;4971482;28;119825;-71
2021/11/02 09:37:18;;;;;;;20.27;10.60;;;;;;;12.62;64.71;99584.50;4972238;28;120591;-71
2021/11/02 09:39:51;;;;;;;18.95;10.07;;;;;;;12.70;64.70;99591.03;4978861;28;119773;-71
2021/11/02 09:42:39;;;;;;;21.23;11.47;;;;;;;12.79;64.72;99588.13;4970259;28;121593;-71
2021/11/02 09:48:20;;;;;;;17.05;11.73;;;;;;;12.90;64.84;99588.16;3683230;23;120382;-70
2021/11/02 09:51:13;;;;;;;21.05;11.30;;;;;;;12.96;64.66;99590.19;4816073;29;119878;-71
2021/11/02 09:53:50;;;;;;;20.30;10.40;;;;;;;13.01;64.59;99592.19;4799019;29;121615;-71
2021/11/02 09:56:23;;;;;;;22.38;11.75;;;;;;;13.05;64.92;99596.25;4804246;29;120171;-70
2021/11/02 09:59:07;;;;;;;20.67;10.40;;;;;;;13.08;64.21;99591.75;4809530;29;119618;-71
2021/11/02 10:02:13;;;;;;;19.05;10.25;;;;;;;13.10;64.19;99590.00;4792184;29;120622;-71
2021/11/02 10:05:00;;;;;;;21.38;11.38;;;;;;;13.16;64.27;99581.78;4816222;29;121021;-70
2021/11/02 10:07:50;;;;;;;19.38;11.23;;;;;;;13.24;64.35;99580.06;4808834;29;119891;-72
2021/11/02 10:10:25;;;;;;;24.98;11.88;;;;;;;13.29;63.92;99579.38;4809311;29;119494;-73
2021/11/02 10:12:57;;;;;;;19.58;11.05;;;;;;;13.32;63.87;99585.88;4809834;29;119851;-72
2021/11/02 10:15:50;;;;;;;17.77;10.15;;;;;;;13.35;64.13;99577.38;4810834;29;120242;-72
2021/11/02 10:18:51;;;;;;;20.40;10.65;;;;;;;13.36;63.29;99575.38;4810302;29;119706;-71
2021/11/02 10:21:54;;;;;;;19.77;9.85;;;;;;;13.41;63.09;99582.91;4824079;28;119507;-71
2021/11/02 10:24:20;;;;;;;17.25;10.38;;;;;;;13.45;63.93;99584.16;4811744;29;120462;-71
2021/11/02 10:27:04;;;;;;;19.88;10.85;;;;;;;13.52;63.82;99580.94;4818264;29;119523;-71
2021/11/02 10:29:48;;;;;;;19.50;11.30;;;;;;;13.57;63.73;99579.44;4818792;29;119713;-72
2021/11/02 10:32:17;;;;;;;18.77;10.57;;;;;;;13.56;63.36;99574.44;4806907;29;120554;-72
2021/11/02 10:34:42;;;;;;;20.13;9.52;;;;;;;13.63;63.58;99580.19;4816076;29;120047;-71
2021/11/02 10:37:30;;;;;;;16.98;10.00;;;;;;;13.68;63.32;99581.47;4814839;29;119626;-71
2021/11/02 10:40:19;;;;;;;19.30;9.30;;;;;;;13.72;63.55;99579.22;4815558;29;120073;-71
2021/11/02 10:43:16;;;;;;;20.13;10.55;;;;;;;13.76;63.82;99577.72;4787498;29;119977;-71
2021/11/02 10:45:57;;;;;;;20.98;10.48;;;;;;;13.78;63.31;99574.47;4815110;29;119573;-72
2021/11/02 10:48:32;;;;;;;17.75;9.60;;;;;;;13.81;63.68;99579.75;4802279;29;119443;-71
2021/11/02 10:51:04;;;;;;;18.65;10.20;;;;;;;13.86;63.73;99572.72;4800723;29;120077;-71
2021/11/02 10:53:37;;;;;;;17.00;10.50;;;;;;;13.91;63.72;99576.72;4798153;29;119499;-71
2021/11/02 10:56:14;;;;;;;16.87;10.10;;;;;;;13.96;63.98;99571.25;4818095;29;119816;-71
2021/11/02 10:58:50;;;;;;;17.00;10.23;;;;;;;13.99;63.90;99564.72;4813656;29;120037;-71
2021/11/02 11:01:18;;;;;;;17.20;10.55;;;;;;;14.03;64.14;99565.22;4811706;29;120175;-71
2021/11/02 11:03:47;;;;;;;22.55;10.13;;;;;;;14.08;63.83;99563.72;4815414;29;119965;-71
2021/11/02 11:06:14;;;;;;;15.50;10.15;;;;;;;14.12;63.33;99561.47;4824836;29;121122;-71
2021/11/02 11:08:41;;;;;;;21.85;9.45;;;;;;;14.16;63.84;99559.19;4814080;29;120008;-71
2021/11/02 11:11:13;;;;;;;12.45;9.05;;;;;;;14.22;63.91;99556.47;4798920;29;119440;-71
2021/11/02 11:13:40;;;;;;;15.93;9.25;;;;;;;14.14;63.30;99545.91;4817616;29;119711;-71
2021/11/02 11:16:10;;;;;;;12.73;8.35;;;;;;;14.29;62.90;99566.97;4799345;29;119465;-71
2021/11/02 11:18:52;;;;;;;12.95;8.13;;;;;;;14.31;62.13;99569.97;4814661;29;119492;-71
2021/11/02 11:21:24;;;;;;;18.25;9.20;;;;;;;14.33;62.65;99570.22;4798695;29;122715;-71
2021/11/02 11:24:06;;;;;;;17.13;8.55;;;;;;;14.35;62.66;99564.97;4815067;29;119797;-71
2021/11/02 11:26:33;;;;;;;12.90;8.25;;;;;;;14.39;63.44;99565.44;4799385;29;119871;-71
2021/11/02 11:29:03;;;;;;;15.50;8.98;;;;;;;14.43;63.06;99558.47;4802203;29;121893;-71
2021/11/02 11:31:29;;;;;;;14.52;8.30;;;;;;;14.48;63.29;99564.50;4812364;29;119683;-71
2021/11/02 11:34:04;;;;;;;13.73;8.70;;;;;;;14.50;63.12;99559.97;4810369;29;119991;-71
2021/11/02 11:36:33;;;;;;;12.95;7.97;;;;;;;14.51;62.85;99555.94;4825632;28;120489;-71
2021/11/02 11:39:04;;;;;;;19.00;8.68;;;;;;;14.51;63.23;99558.72;4810253;29;120234;-71
2021/11/02 11:41:35;;;;;;;14.88;8.75;;;;;;;14.57;62.82;99551.16;4792876;29;120113;-71
2021/11/02 11:44:03;;;;;;;16.52;8.40;;;;;;;14.58;62.35;99554.69;4810873;29;119567;-71
2021/11/02 11:46:29;;;;;;;17.90;8.57;;;;;;;14.59;62.40;99556.94;4816662;29;119477;-72
2021/11/02 11:48:57;;;;;;;15.85;9.05;;;;;;;14.62;62.83;99550.41;4812944;29;120652;-71
2021/11/02 11:51:25;;;;;;;15.55;8.70;;;;;;;14.65;63.10;99549.38;4812514;29;119625;-72
2021/11/02 11:54:03;;;;;;;15.30;8.25;;;;;;;14.67;62.23;99551.66;4782727;29;119417;-71
2021/11/02 11:56:39;;;;;;;17.63;8.73;;;;;;;14.66;62.05;99550.88;4812427;29;119494;-71
2021/11/02 11:59:15;;;;;;;14.68;8.05;;;;;;;14.67;61.52;99552.41;4817784;29;119915;-71
2021/11/02 12:01:41;;;;;;;15.07;7.97;;;;;;;14.67;62.03;99554.44;4799047;29;120410;-71
2021/11/02 12:04:09;;;;;;;13.15;8.35;;;;;;;14.73;62.20;99553.16;4795454;29;120955;-71
2021/11/02 12:06:46;;;;;;;15.95;8.82;;;;;;;14.76;62.04;99550.63;4808574;29;121808;-71
2021/11/02 12:09:21;;;;;;;15.50;8.43;;;;;;;14.79;62.25;99552.38;4810193;29;119463;-71
2021/11/02 12:11:49;;;;;;;21.63;8.63;;;;;;;14.78;61.56;99542.59;4813004;29;119696;-71
2021/11/02 12:14:24;;;;;;;15.38;8.32;;;;;;;14.84;61.67;99548.84;4829615;29;120197;-71
2021/11/02 12:16:52;;;;;;;18.95;9.05;;;;;;;14.86;62.12;99547.06;4816270;29;120664;-71
2021/11/02 12:19:24;;;;;;;12.50;8.25;;;;;;;14.89;62.18;99550.81;4800523;29;119606;-71
2021/11/02 12:22:03;;;;;;;15.33;8.10;;;;;;;14.89;61.03;99550.81;4803751;29;120204;-71
2021/11/02 12:24:31;;;;;;;18.88;8.75;;;;;;;14.92;61.84;99544.31;4816457;29;119510;-71
2021/11/02 12:27:11;;;;;;;17.05;9.02;;;;;;;14.94;61.70;99550.81;4814242;29;119633;-71
2021/11/02 12:29:37;;;;;;;13.65;8.52;;;;;;;14.92;62.42;99539.53;4800226;29;122473;-71
2021/11/02 12:32:11;;;;;;;15.73;8.25;;;;;;;14.98;61.55;99545.03;4815375;29;119799;-73
2021/11/02 12:35:05;;;;;;;15.00;8.88;;;;;;;15.00;62.12;99542.50;4815771;29;119494;-72
2021/11/02 12:37:34;;;;;;;16.95;7.97;;;;;;;15.01;62.15;99541.25;4810026;29;120201;-71
2021/11/02 12:40:27;;;;;;;15.50;8.52;;;;;;;15.03;61.99;99550.53;4785010;29;119447;-71
2021/11/02 12:42:54;;;;;;;15.40;7.75;;;;;;;15.03;61.38;99544.25;4818702;29;120137;-71
2021/11/02 12:45:23;;;;;;;15.48;8.20;;;;;;;15.05;61.66;99547.25;4815316;29;119943;-71
2021/11/02 12:47:50;;;;;;;21.35;9.18;;;;;;;15.07;61.53;99544.75;4816568;29;119920;-71
2021/11/02 12:50:20;;;;;;;15.25;8.70;;;;;;;15.09;62.17;99547.75;4816529;29;119822;-71
2021/11/02 12:52:46;;;;;;;15.60;8.95;;;;;;;15.06;61.98;99540.47;4814790;29;120251;-71
2021/11/02 12:55:15;;;;;;;14.30;7.95;;;;;;;15.09;61.54;99542.22;4814897;29;120098;-71
2021/11/02 12:57:47;;;;;;;21.88;8.88;;;;;;;15.11;61.66;99550.75;4816209;29;119726;-71
2021/11/02 13:00:18;;;;;;;15.40;9.30;;;;;;;15.07;61.51;99536.47;4798058;29;119858;-71
2021/11/02 13:02:50;;;;;;;15.82;8.48;;;;;;;15.11;62.07;99538.94;4795079;29;119972;-70
2021/11/02 13:05:20;;;;;;;18.33;8.63;;;;;;;15.12;61.78;99541.19;4798812;29;122302;-71
2021/11/02 13:08:04;;;;;;;15.02;8.40;;;;;;;15.15;62.26;99534.69;4810151;29;119534;-71
2021/11/02 13:10:31;;;;;;;17.20;8.55;;;;;;;15.12;61.47;99532.91;4792446;29;121885;-72
2021/11/02 13:13:05;;;;;;;14.75;7.97;;;;;;;15.14;62.07;99535.94;4814055;29;120075;-72
2021/11/02 13:15:32;;;;;;;14.45;7.80;;;;;;;15.14;61.54;99532.41;4812870;29;119470;-70
2021/11/02 13:18:01;;;;;;;15.32;7.20;;;;;;;15.13;61.51;99537.19;4814064;29;120032;-71
2021/11/02 13:20:35;;;;;;;16.00;8.07;;;;;;;15.13;61.65;99528.88;4813752;29;119498;-71
2021/11/02 13:23:03;;;;;;;15.63;7.93;;;;;;;15.13;61.25;99526.13;4806489;29;121171;-71
2021/11/02 13:25:37;;;;;;;16.63;7.60;;;;;;;15.17;61.82;99534.91;4807832;29;120041;-71
2021/11/02 13:28:03;;;;;;;;;;;;;;;15.17;61.71;99536.94;4816037;29;119522;-71
2021/11/02 13:30:42;;;;;;;14.75;7.07;;;;;;;15.17;61.60;99540.44;4812950;29;119570;-71
2021/11/02 13:33:12;;;;;;;15.57;6.40;;;;;;;15.12;60.66;99537.69;4812563;29;119996;-71
2021/11/02 13:35:50;;;;;;;15.00;6.97;;;;;;;15.14;59.94;99535.94;4795235;29;120932;-71
2021/11/02 13:38:21;;;;;;;12.30;6.18;;;;;;;15.14;60.62;99541.47;4802794;29;120142;-71
2021/11/02 13:40:46;;;;;;;13.57;6.80;;;;;;;15.15;60.98;99533.94;4798926;29;119820;-71
2021/11/02 13:43:33;;;;;;;14.05;6.95;;;;;;;15.20;61.44;99542.19;4810447;29;119922;-71
2021/11/02 13:46:00;;;;;;;17.00;7.75;;;;;;;15.21;61.31;99542.94;4805624;29;120183;-71
2021/11/02 13:48:27;;;;;;;12.80;7.63;;;;;;;15.22;60.99;99538.91;4808317;29;119966;-71
2021/11/02 13:50:55;;;;;;;14.25;8.23;;;;;;;15.21;61.10;99535.41;4811372;29;120123;-72
2021/11/02 13:53:24;;;;;;;13.52;7.72;;;;;;;15.26;61.47;99542.91;4809266;29;119948;-71
2021/11/02 13:55:51;;;;;;;14.45;7.78;;;;;;;15.27;61.77;99541.63;4811668;29;119907;-71
2021/11/02 13:58:17;;;;;;;16.02;7.72;;;;;;;15.25;61.59;99541.41;4812120;29;121018;-71
2021/11/02 14:00:44;;;;;;;17.65;7.65;;;;;;;15.25;61.59;99544.16;4810539;29;119821;-71
2021/11/02 14:03:15;;;;;;;18.75;8.75;;;;;;;15.26;61.25;99545.66;4810602;29;120081;-71
2021/11/02 14:05:43;;;;;;;19.58;8.63;;;;;;;15.26;61.87;99545.66;4812212;29;119461;-72
2021/11/02 14:08:10;;;;;;;18.45;8.07;;;;;;;15.26;61.96;99547.69;4810327;29;121469;-71
2021/11/02 14:10:35;;;;;;;20.48;8.80;;;;;;;15.25;61.57;99544.16;4795288;29;119943;-70
2021/11/02 14:13:02;;;;;;;16.33;7.68;;;;;;;15.24;61.56;99545.41;4814713;29;121639;-72
2021/11/02 14:15:31;;;;;;;15.00;8.60;;;;;;;15.23;61.79;99543.91;4805086;29;119761;-71
2021/11/02 14:17:57;;;;;;;14.57;8.40;;;;;;;15.23;62.12;99546.69;4804209;29;121214;-71
2021/11/02 14:20:51;;;;;;;18.85;8.77;;;;;;;15.21;61.87;99554.72;4809059;29;119822;-71
2021/11/02 14:23:41;;;;;;;18.85;9.18;;;;;;;15.14;61.71;99547.00;4811848;29;119405;-71
2021/11/02 14:26:23;;;;;;;17.48;8.45;;;;;;;15.16;61.71;99541.72;4809216;29;120136;-72
2021/11/02 14:28:54;;;;;;;18.77;8.55;;;;;;;15.16;61.98;99552.00;4815334;29;119931;-71
2021/11/02 14:31:38;;;;;;;17.58;8.65;;;;;;;15.14;61.79;99555.28;4812553;29;119773;-71
2021/11/02 14:34:05;;;;;;;19.67;9.35;;;;;;;15.12;62.05;99555.00;4813178;29;120138;-71
2021/11/02 14:36:40;;;;;;;15.88;9.18;;;;;;;15.11;62.02;99553.50;4799619;29;120094;-71
2021/11/02 14:39:13;;;;;;;18.33;9.48;;;;;;;15.10;62.24;99554.00;4811804;29;119846;-71
2021/11/02 14:41:47;;;;;;;16.17;10.32;;;;;;;15.09;62.29;99558.03;4813542;29;119797;-71
2021/11/02 14:44:28;;;;;;;20.90;9.48;;;;;;;15.06;62.10;99565.31;4813042;29;120169;-71
2021/11/02 14:46:59;;;;;;;18.83;10.13;;;;;;;15.02;62.38;99564.84;4780042;29;121598;-71
2021/11/02 14:49:45;;;;;;;20.55;10.05;;;;;;;14.97;62.17;99562.88;4797590;29;119703;-71
2021/11/02 14:52:12;;;;;;;17.15;9.55;;;;;;;14.92;62.14;99561.63;4800585;29;120545;-70
2021/11/02 14:54:41;;;;;;;17.50;9.95;;;;;;;14.90;62.23;99560.59;4820215;28;119669;-71
2021/11/02 14:57:18;;;;;;;18.92;10.30;;;;;;;14.85;62.42;99566.91;4816622;29;119717;-71
2021/11/02 14:59:52;;;;;;;19.58;10.27;;;;;;;14.80;62.59;99564.91;4811843;29;122803;-70
2021/11/02 15:02:40;;;;;;;16.23;9.63;;;;;;;14.74;62.69;99562.94;4811744;29;119741;-71
2021/11/02 15:05:10;;;;;;;14.27;9.35;;;;;;;14.69;62.36;99577.50;4797595;29;120870;-70
2021/11/02 15:07:40;;;;;;;19.33;9.75;;;;;;;14.62;62.53;99572.47;4815265;29;121653;-71
2021/11/02 15:10:09;;;;;;;14.25;9.38;;;;;;;14.59;62.85;99572.72;4811492;29;119554;-71
2021/11/02 15:12:36;;;;;;;14.35;9.60;;;;;;;14.52;62.77;99574.00;4812826;29;120033;-71
2021/11/02 15:15:03;;;;;;;13.63;9.07;;;;;;;14.47;62.59;99574.03;4814708;29;119956;-72
2021/11/02 15:17:29;;;;;;;17.58;10.80;;;;;;;14.37;62.76;99573.47;4828775;29;119988;-71
2021/11/02 15:19:54;;;;;;;16.75;9.95;;;;;;;14.32;62.92;99572.25;4797783;29;119691;-71
2021/11/02 15:22:22;;;;;;;23.80;11.88;;;;;;;14.28;63.39;99584.78;4812890;29;119991;-71
2021/11/02 15:24:54;;;;;;;21.23;14.07;;;;;;;14.25;63.34;99575.50;4812490;29;119632;-71
2021/11/02 15:27:23;;;;;;;24.77;14.63;;;;;;;14.25;63.49;99583.03;4796228;29;120950;-71
2021/11/02 15:29:48;;;;;;;20.77;14.77;;;;;;;14.26;63.76;99584.53;4810695;29;119979;-72
2021/11/02 15:32:17;;;;;;;25.42;15.43;;;;;;;14.27;63.94;99581.28;4814716;29;119195;-73
2021/11/02 15:34:56;;;;;;;24.70;15.90;;;;;;;14.28;63.86;99587.53;4809133;29;119636;-70
2021/11/02 15:37:25;;;;;;;27.75;15.25;;;;;;;14.28;64.20;99590.31;4806478;29;120138;-71
2021/11/02 15:39:57;;;;;;;27.55;15.43;;;;;;;14.24;63.80;99590.56;4829420;29;119650;-72
2021/11/02 15:42:29;;;;;;;22.98;15.82;;;;;;;14.27;63.57;99591.56;4815517;29;119953;-71
2021/11/02 15:44:57;;;;;;;21.55;15.98;;;;;;;14.24;64.15;99593.31;4811193;29;118966;-72
2021/11/02 15:47:25;;;;;;;35.00;18.90;;;;;;;14.22;63.62;99592.31;4810639;29;120145;-70
2021/11/02 15:50:03;;;;;;;40.78;19.25;;;;;;;14.17;63.52;99596.56;4817478;29;119779;-71
2021/11/02 15:52:30;;;;;;;34.40;19.30;;;;;;;14.11;63.38;99599.31;4817423;29;119514;-71
2021/11/02 15:55:03;;;;;;;34.78;20.02;;;;;;;14.06;63.50;99594.56;4786586;29;121217;-71
2021/11/02 15:57:41;;;;;;;37.55;20.33;;;;;;;14.02;63.72;99593.31;4818207;29;120101;-70
2021/11/02 16:00:09;;;;;;;30.88;20.02;;;;;;;14.01;63.75;99600.81;4819035;29;120390;-70
2021/11/02 16:02:40;;;;;;;31.38;19.58;;;;;;;14.00;63.60;99607.59;4818789;29;119638;-71
2021/11/02 16:05:21;;;;;;;28.70;19.63;;;;;;;13.99;63.89;99605.34;4822386;29;119612;-71
2021/11/02 16:07:50;;;;;;;33.95;19.92;;;;;;;13.98;64.18;99607.34;4818041;29;119405;-71
2021/11/02 16:10:17;;;;;;;29.42;19.23;;;;;;;13.98;64.06;99610.09;4803253;29;119473;-71
2021/11/02 16:12:49;;;;;;;26.98;19.90;;;;;;;13.97;63.93;99605.09;4815991;29;119926;-71
2021/11/02 16:15:21;;;;;;;34.40;20.85;;;;;;;13.95;63.99;99599.28;4803315;29;121920;-70
2021/11/02 16:17:48;;;;;;;30.70;21.13;;;;;;;13.93;63.96;99610.81;4817141;29;119601;-70
2021/11/02 16:20:15;;;;;;;37.83;22.83;;;;;;;13.88;64.01;99595.03;4818278;29;120425;-71
2021/11/02 16:22:55;;;;;;;36.40;23.02;;;;;;;13.91;63.93;99610.56;4818950;29;121207;-71
2021/11/02 16:25:21;;;;;;;32.40;20.33;;;;;;;13.83;64.29;99604.03;4803026;29;119475;-71
2021/11/02 16:27:55;;;;;;;30.00;20.20;;;;;;;13.85;64.68;99612.56;4820669;29;119730;-71
2021/11/02 16:30:23;;;;;;;31.05;19.33;;;;;;;13.83;64.57;99615.81;4816803;29;120051;-71
2021/11/02 16:32:51;;;;;;;35.63;19.40;;;;;;;13.82;64.18;99610.81;4817444;29;120957;-70
2021/11/02 16:35:36;;;;;;;31.50;20.00;;;;;;;13.78;64.06;99615.81;4784872;29;120925;-71
2021/11/02 16:38:20;;;;;;;;;;;;;;;13.71;63.71;99613.53;4804141;29;119582;-71
2021/11/02 16:40:51;;;;;;;31.97;20.63;;;;;;;13.63;63.50;99615.25;4820712;29;119700;-71
2021/11/02 16:43:26;;;;;;;36.88;24.10;;;;;;;13.56;63.65;99615.75;4816776;29;121160;-71
2021/11/02 16:45:53;;;;;;;39.13;22.30;;;;;;;13.49;63.87;99615.00;4801600;29;119882;-71
2021/11/02 16:48:18;;;;;;;38.83;22.55;;;;;;;13.44;63.54;99618.47;4810699;29;119750;-71